Time;durP1;ratioP1;P1;durP2;ratioP2;P2;SDS_P1;SDS_P2;PMS_P1;PMS_P2;Temp;Humidity;BMP_temperature;BMP_pressure;BME280_temperature;BME280_humidity;BME280_pressure;Samples;Min_cycle;Max_cycle;Signal;HPM_P1;HPM_P2
2022/11/19 00:03:01;;;;;;;110.67;46.73;;;-1.50;20.20;;;;;;10284374;28;20200;-87
2022/11/19 00:08:22;;;;;;;191.93;66.03;;;-1.50;1.00;;;;;;10298283;28;20203;-86
2022/11/19 00:13:44;;;;;;;190.60;67.73;;;-1.40;99.90;;;;;;10272088;28;20202;-85
2022/11/19 00:19:05;;;;;;;138.70;55.10;;;-1.40;99.90;;;;;;10323252;28;20202;-86
2022/11/19 00:24:28;;;;;;;209.50;74.20;;;-1.50;99.90;;;;;;10338260;28;20204;-80
2022/11/19 00:29:52;;;;;;;215.13;68.73;;;-1.40;99.90;;;;;;10354855;28;20190;-89
2022/11/19 00:35:13;;;;;;;173.20;61.27;;;-1.40;33.70;;;;;;10350831;28;20215;-84
2022/11/19 00:40:34;;;;;;;142.80;55.80;;;-1.50;1.00;;;;;;10346806;28;20270;-88
2022/11/19 00:45:56;;;;;;;131.47;52.97;;;-1.60;1.00;;;;;;10330806;28;20199;-88
2022/11/19 00:51:18;;;;;;;102.30;42.73;;;-1.60;1.00;;;;;;10331418;28;20218;-88
2022/11/19 00:56:39;;;;;;;86.90;37.50;;;-1.70;1.00;;;;;;10330949;28;20292;-88
2022/11/19 01:02:00;;;;;;;82.47;38.20;;;-1.70;99.90;;;;;;10295164;28;20199;-88
2022/11/19 01:07:21;;;;;;;92.33;38.83;;;-1.50;1.00;;;;;;10290425;28;20259;-88
2022/11/19 01:18:22;;;;;;;57.43;25.67;;;-1.20;1.00;;;;;;10365956;28;20233;-87
2022/11/19 01:23:44;;;;;;;40.83;21.10;;;-0.90;99.90;;;;;;10345265;28;20396;-80
2022/11/19 01:29:04;;;;;;;37.80;18.17;;;-0.80;99.90;;;;;;10362166;28;20203;-81
2022/11/19 01:34:26;;;;;;;30.80;16.83;;;-0.70;99.90;;;;;;10346418;28;20227;-88
2022/11/19 01:39:47;;;;;;;27.87;15.37;;;-0.60;1.00;;;;;;10328562;28;20204;-80
2022/11/19 01:45:27;;;;;;;22.13;13.70;;;-0.60;1.00;;;;;;10359473;28;20223;-80
2022/11/19 01:50:55;;;;;;;25.13;13.57;;;-0.60;1.00;;;;;;10314987;28;20205;-84
2022/11/19 01:56:18;;;;;;;28.13;14.37;;;-0.60;99.90;;;;;;10327002;28;20250;-81
2022/11/19 02:01:42;;;;;;;41.50;16.23;;;-0.50;56.30;;;;;;10295578;28;20223;-88
2022/11/19 02:07:03;;;;;;;28.97;15.07;;;-0.50;1.00;;;;;;10290714;28;20195;-81
2022/11/19 02:12:30;;;;;;;31.03;15.70;;;-0.50;1.00;;;;;;10300903;28;20205;-86
2022/11/19 02:18:19;;;;;;;25.27;13.60;;;-0.60;99.90;;;;;;10301030;28;20230;-80
2022/11/19 02:24:16;;;;;;;24.73;13.30;;;-0.60;35.30;;;;;;10343613;28;20215;-87
2022/11/19 02:30:10;;;;;;;24.40;13.30;;;-0.60;99.90;;;;;;10369169;28;20246;-84
2022/11/19 02:35:37;;;;;;;25.63;14.57;;;-0.60;1.00;;;;;;10349056;28;20271;-82
2022/11/19 02:41:32;;;;;;;31.70;14.73;;;-0.70;1.00;;;;;;10342744;28;20201;-89
2022/11/19 02:46:50;;;;;;;24.43;14.37;;;-0.70;99.90;;;;;;10326245;28;20219;-89
2022/11/19 02:52:14;;;;;;;26.07;14.70;;;-0.80;99.90;;;;;;10326163;28;20386;-80
2022/11/19 02:57:36;;;;;;;30.43;15.67;;;-0.80;1.00;;;;;;10339761;28;20273;-83
2022/11/19 03:08:55;;;;;;;23.97;14.07;;;-0.80;1.00;;;;;;10326068;28;20231;-89
2022/11/19 03:20:35;;;;;;;25.47;14.53;;;-0.80;1.00;;;;;;10325398;28;20564;-85
2022/11/19 03:26:03;;;;;;;23.00;13.97;;;-0.80;1.00;;;;;;10324806;28;20200;-85
2022/11/19 03:31:27;;;;;;;20.57;12.30;;;-0.80;1.00;;;;;;10316131;28;20222;-78
2022/11/19 03:36:51;;;;;;;24.73;14.10;;;-0.90;1.00;;;;;;10309382;28;20302;-79
2022/11/19 03:42:15;;;;;;;23.00;13.33;;;-0.90;1.00;;;;;;10338135;28;20264;-77
2022/11/19 03:47:38;;;;;;;25.77;14.40;;;-0.90;99.90;;;;;;10301615;28;20191;-87
2022/11/19 03:52:59;;;;;;;23.17;13.10;;;-1.00;99.90;;;;;;10284552;28;20264;-81
2022/11/19 03:58:25;;;;;;;31.30;14.80;;;-1.00;99.90;;;;;;10314435;28;20232;-80
2022/11/19 04:04:34;;;;;;;31.80;14.77;;;-0.90;99.90;;;;;;10297897;28;20285;-78
2022/11/19 04:09:27;;;;;;;40.17;16.50;;;-0.90;99.90;;;;;;10313929;28;20208;-86
2022/11/19 04:14:49;;;;;;;27.67;14.47;;;-1.00;99.90;;;;;;10297545;28;20426;-86
2022/11/19 04:20:10;;;;;;;19.17;12.40;;;-0.90;99.90;;;;;;10319035;28;20214;-81
2022/11/19 04:25:31;;;;;;;19.63;13.77;;;-0.90;99.90;;;;;;10344760;28;20497;-82
2022/11/19 04:30:53;;;;;;;19.40;12.50;;;-0.80;99.90;;;;;;10398775;28;20272;-78
2022/11/19 04:36:14;;;;;;;22.30;12.03;;;-0.90;99.90;;;;;;10320557;28;20243;-85
2022/11/19 04:41:35;;;;;;;23.90;11.37;;;-0.90;99.90;;;;;;10317623;28;20277;-86
2022/11/19 04:46:57;;;;;;;17.77;11.23;;;-0.90;99.90;;;;;;10347212;28;20220;-79
2022/11/19 04:52:18;;;;;;;16.60;9.97;;;-0.90;99.90;;;;;;10333021;28;20206;-81
2022/11/19 04:57:39;;;;;;;19.57;11.17;;;-0.80;99.90;;;;;;10357302;28;20243;-78
2022/11/19 05:03:01;;;;;;;18.70;9.67;;;-0.80;99.90;;;;;;10310976;28;20193;-80
2022/11/19 05:08:22;;;;;;;20.60;9.53;;;-0.80;99.90;;;;;;10289922;28;20209;-79
2022/11/19 05:13:44;;;;;;;13.63;8.73;;;-0.90;99.90;;;;;;10290110;28;20238;-87
2022/11/19 05:19:08;;;;;;;20.07;8.60;;;-0.90;99.90;;;;;;10308866;28;20226;-80
2022/11/19 05:24:31;;;;;;;18.37;8.23;;;-0.90;99.90;;;;;;10347221;28;20501;-80
2022/11/19 05:29:53;;;;;;;15.30;7.47;;;-0.90;1.00;;;;;;10345568;28;20352;-80
2022/11/19 05:35:14;;;;;;;15.87;8.23;;;-0.90;1.00;;;;;;10380395;28;20231;-80
2022/11/19 05:40:35;;;;;;;17.33;7.97;;;-0.90;1.00;;;;;;10334129;28;20396;-86
2022/11/19 05:46:02;;;;;;;18.43;8.40;;;-0.80;1.00;;;;;;10329500;28;20196;-84
2022/11/19 05:51:24;;;;;;;12.07;6.47;;;-0.80;99.90;;;;;;10334258;28;20211;-87
2022/11/19 05:56:47;;;;;;;11.90;5.70;;;-0.70;99.90;;;;;;10331260;28;20237;-88
2022/11/19 06:02:08;;;;;;;11.47;6.57;;;-0.70;99.90;;;;;;10306710;28;20573;-88
2022/11/19 06:07:29;;;;;;;12.60;7.07;;;-0.80;99.90;;;;;;10304167;28;20204;-80
2022/11/19 06:12:50;;;;;;;15.03;7.57;;;-0.90;99.90;;;;;;10304769;28;20267;-80
2022/11/19 06:18:12;;;;;;;15.07;6.97;;;-0.90;1.00;;;;;;10290393;28;20230;-86
2022/11/19 06:23:33;;;;;;;10.73;6.27;;;-0.90;1.00;;;;;;10327855;28;20202;-86
2022/11/19 06:28:54;;;;;;;12.37;6.93;;;-0.90;99.90;;;;;;10343475;28;20198;-80
2022/11/19 06:34:15;;;;;;;13.47;7.50;;;-1.00;1.00;;;;;;10361906;28;20202;-81
2022/11/19 06:39:37;;;;;;;11.80;6.83;;;-1.00;1.00;;;;;;10340239;28;20211;-83
2022/11/19 06:44:58;;;;;;;16.23;9.97;;;-1.10;1.00;;;;;;10342247;28;20202;-80
2022/11/19 06:50:19;;;;;;;26.30;14.47;;;-1.20;1.00;;;;;;10312403;28;20196;-89
2022/11/19 06:55:40;;;;;;;57.27;30.33;;;-1.20;1.00;;;;;;10325853;28;20456;-85
2022/11/19 07:01:02;;;;;;;33.80;17.40;;;-1.10;1.00;;;;;;10314171;28;20222;-80
2022/11/19 07:06:23;;;;;;;30.57;17.03;;;-0.90;1.00;;;;;;10302907;28;20199;-82
2022/11/19 07:11:44;;;;;;;35.97;18.57;;;-0.90;1.00;;;;;;10272838;28;20250;-80
2022/11/19 07:17:06;;;;;;;50.97;26.17;;;-0.80;1.00;;;;;;10295304;28;20261;-80
2022/11/19 07:22:27;;;;;;;24.63;15.63;;;-0.80;1.00;;;;;;10342644;28;20390;-88
2022/11/19 07:27:48;;;;;;;17.50;11.30;;;-0.70;99.90;;;;;;10341800;28;20198;-80
2022/11/19 07:33:09;;;;;;;16.27;8.83;;;-0.60;1.00;;;;;;10347718;28;20175;-81
2022/11/19 07:38:31;;;;;;;25.77;11.23;;;-0.60;99.90;;;;;;10329976;28;20230;-87
2022/11/19 07:43:55;;;;;;;15.63;8.60;;;-0.60;1.00;;;;;;10324788;28;20271;-80
2022/11/19 07:49:17;;;;;;;17.37;8.13;;;-0.50;1.00;;;;;;10325127;28;20202;-88
2022/11/19 07:54:38;;;;;;;20.43;11.60;;;-0.50;99.90;;;;;;10329707;28;20204;-88
2022/11/19 07:59:59;;;;;;;23.20;13.60;;;-0.50;99.90;;;;;;10329710;28;20235;-89
2022/11/19 08:05:20;;;;;;;35.77;13.97;;;-0.40;99.90;;;;;;10336670;28;20210;-87
2022/11/19 08:10:42;;;;;;;24.40;12.17;;;-0.50;99.90;;;;;;10346574;28;20198;-85
2022/11/19 08:16:05;;;;;;;168.63;49.27;;;-0.50;99.90;;;;;;10372653;28;20212;-85
2022/11/19 08:21:27;;;;;;;121.37;39.57;;;-0.50;99.90;;;;;;10333220;28;20605;-86
2022/11/19 08:26:48;;;;;;;75.77;28.70;;;-0.50;99.90;;;;;;10306068;28;20228;-79
2022/11/19 08:32:09;;;;;;;77.07;27.20;;;-0.50;99.90;;;;;;10367862;28;20267;-79
2022/11/19 08:37:30;;;;;;;94.90;36.87;;;-0.40;99.90;;;;;;10331438;28;20239;-80
2022/11/19 08:43:00;;;;;;;45.33;21.63;;;-0.40;99.90;;;;;;10331278;28;20243;-82
2022/11/19 08:48:21;;;;;;;27.93;16.37;;;-0.50;99.90;;;;;;10345310;28;20199;-82
2022/11/19 08:53:43;;;;;;;29.67;18.07;;;-0.50;1.00;;;;;;10330496;28;20208;-80
2022/11/19 08:59:04;;;;;;;67.53;45.37;;;-0.50;1.00;;;;;;10343959;28;20262;-81
2022/11/19 09:04:25;;;;;;;30.60;20.60;;;-0.40;1.00;;;;;;10291122;28;20228;-86
2022/11/19 09:09:47;;;;;;;28.30;19.07;;;-0.40;99.90;;;;;;10323438;28;20273;-80
2022/11/19 09:15:09;;;;;;;28.80;17.73;;;-0.40;1.00;;;;;;10289659;28;20231;-87
2022/11/19 09:20:30;;;;;;;35.57;22.87;;;-0.40;99.90;;;;;;10324493;28;20231;-79
2022/11/19 09:26:03;;;;;;;26.60;16.40;;;-0.20;99.90;;;;;;10323854;28;20215;-80
2022/11/19 09:31:24;;;;;;;26.27;16.67;;;-0.10;99.90;;;;;;10289618;28;20227;-87
2022/11/19 09:36:45;;;;;;;25.47;16.90;;;0.00;99.90;;;;;;10306384;28;20232;-89
2022/11/19 09:42:29;;;;;;;27.03;15.77;;;0.10;99.90;;;;;;10307923;28;20236;-80
2022/11/19 09:48:05;;;;;;;21.60;15.53;;;0.00;99.90;;;;;;10306844;28;20199;-88
2022/11/19 09:53:31;;;;;;;22.83;14.20;;;-0.10;47.10;;;;;;10292838;28;20201;-86
2022/11/19 09:58:54;;;;;;;30.73;17.63;;;-0.10;98.30;;;;;;10288889;28;20267;-80
2022/11/19 10:04:21;;;;;;;37.03;21.13;;;-0.10;99.90;;;;;;10297230;28;20206;-83
2022/11/19 10:10:11;;;;;;;26.83;13.70;;;-0.10;99.90;;;;;;10287839;28;20200;-88
2022/11/19 10:15:39;;;;;;;37.87;19.20;;;-0.10;99.90;;;;;;10290437;28;20412;-79
2022/11/19 10:21:22;;;;;;;30.50;18.30;;;-0.20;99.90;;;;;;10342769;28;20266;-88
2022/11/19 10:27:11;;;;;;;33.60;20.87;;;-0.20;1.00;;;;;;10344062;28;20203;-81
2022/11/19 10:32:37;;;;;;;26.73;16.70;;;-0.40;1.00;;;;;;10347052;28;20196;-85
2022/11/19 10:38:02;;;;;;;57.00;27.93;;;-0.50;1.00;;;;;;10356005;28;20235;-80
2022/11/19 10:43:23;;;;;;;62.33;28.00;;;-0.30;1.00;;;;;;10349493;28;20193;-87
2022/11/19 10:48:56;;;;;;;48.53;25.67;;;-0.20;1.00;;;;;;10328963;28;20246;-80
2022/11/19 10:54:24;;;;;;;76.63;38.87;;;-0.30;99.90;;;;;;10340117;28;20275;-88
2022/11/19 10:59:48;;;;;;;46.97;24.93;;;-0.30;99.90;;;;;;10303194;28;20258;-81
2022/11/19 11:05:13;;;;;;;25.43;16.37;;;-0.30;99.90;;;;;;10302738;28;20198;-86
2022/11/19 11:10:44;;;;;;;37.57;22.73;;;-0.30;99.90;;;;;;10272940;28;20204;-82
2022/11/19 11:16:15;;;;;;;27.77;15.93;;;-0.40;99.90;;;;;;10299655;28;20320;-83
2022/11/19 11:21:38;;;;;;;25.90;13.70;;;-0.40;99.90;;;;;;10302423;28;20204;-82
2022/11/19 11:27:19;;;;;;;22.43;14.53;;;-0.40;99.90;;;;;;10292835;28;20432;-80
2022/11/19 11:32:41;;;;;;;27.60;16.03;;;-0.40;99.90;;;;;;10374791;28;20196;-81
2022/11/19 11:38:04;;;;;;;29.53;15.70;;;-0.30;99.90;;;;;;10341667;28;20284;-80
2022/11/19 11:43:26;;;;;;;46.93;22.33;;;-0.30;99.90;;;;;;10325136;28;20200;-88
2022/11/19 11:48:49;;;;;;;52.70;26.87;;;-0.30;56.40;;;;;;10313434;28;20208;-83
2022/11/19 11:54:18;;;;;;;26.93;17.20;;;-0.30;99.90;;;;;;10325171;28;20381;-79
2022/11/19 11:59:39;;;;;;;25.40;14.37;;;-0.30;99.90;;;;;;10329442;28;20248;-87
2022/11/19 12:05:03;;;;;;;24.20;12.77;;;-0.40;99.90;;;;;;10287609;28;20199;-82
2022/11/19 12:11:02;;;;;;;30.93;17.03;;;-0.50;99.90;;;;;;10300963;28;20274;-85
2022/11/19 12:16:30;;;;;;;23.37;16.93;;;-0.60;1.00;;;;;;10126995;29;20279;-80
2022/11/19 12:21:56;;;;;;;60.57;31.93;;;-0.60;1.00;;;;;;10179080;29;20210;-80
2022/11/19 12:27:43;;;;;;;42.13;25.50;;;-0.60;1.00;;;;;;10184807;29;20261;-83
2022/11/19 12:33:22;;;;;;;61.03;34.07;;;-0.50;1.00;;;;;;10224124;29;20200;-79
2022/11/19 12:38:46;;;;;;;30.40;17.77;;;-0.50;1.00;;;;;;10202515;29;20233;-84
2022/11/19 12:44:42;;;;;;;28.27;16.17;;;-0.70;1.00;;;;;;10242544;29;20237;-86
2022/11/19 12:50:13;;;;;;;35.30;19.37;;;-0.80;1.00;;;;;;10287181;28;20250;-85
2022/11/19 12:56:22;;;;;;;34.00;19.37;;;-0.80;1.00;;;;;;10291411;28;20220;-83
2022/11/19 13:01:49;;;;;;;37.73;23.20;;;-0.70;1.00;;;;;;10251674;29;20436;-81
2022/11/19 13:07:19;;;;;;;42.50;24.33;;;-0.70;1.00;;;;;;10272252;28;20211;-80
2022/11/19 13:12:45;;;;;;;71.53;33.83;;;-0.70;1.00;;;;;;10259478;29;20231;-80
2022/11/19 13:18:13;;;;;;;56.83;30.30;;;-0.60;1.00;;;;;;10266588;28;20283;-81
2022/11/19 13:23:41;;;;;;;36.17;20.30;;;-0.60;1.00;;;;;;10284905;28;20568;-83
2022/11/19 13:29:20;;;;;;;34.90;21.57;;;-0.70;1.00;;;;;;10353601;28;20202;-81
2022/11/19 13:35:03;;;;;;;23.63;15.77;;;-0.70;1.00;;;;;;10344799;28;20207;-80
2022/11/19 13:40:48;;;;;;;36.70;18.23;;;-0.80;1.00;;;;;;10329081;28;20208;-80
2022/11/19 13:46:09;;;;;;;33.73;17.10;;;-0.80;1.00;;;;;;10329403;28;20207;-80
2022/11/19 13:51:42;;;;;;;34.87;20.33;;;-0.90;1.00;;;;;;10328949;28;20508;-80
2022/11/19 13:57:05;;;;;;;21.67;12.67;;;-0.90;1.00;;;;;;10341540;28;20239;-79
2022/11/19 14:02:38;;;;;;;23.07;13.43;;;-0.90;1.00;;;;;;10296987;28;20506;-79
2022/11/19 14:08:19;;;;;;;63.63;30.77;;;-0.90;1.00;;;;;;10288154;28;20384;-79
2022/11/19 14:13:55;;;;;;;35.30;19.70;;;-0.90;1.00;;;;;;10288056;28;20196;-79
2022/11/19 14:30:20;;;;;;;34.90;18.27;;;-1.00;1.00;;;;;;10350157;28;20205;-80
2022/11/19 14:35:41;;;;;;;41.83;23.40;;;-1.00;1.00;;;;;;10334790;28;20205;-79
2022/11/19 14:41:07;;;;;;;32.40;16.53;;;-1.20;1.00;;;;;;10327337;28;20380;-79
2022/11/19 14:46:28;;;;;;;21.43;12.57;;;-1.10;1.00;;;;;;10327226;28;20204;-79
2022/11/19 14:51:55;;;;;;;14.17;9.30;;;-1.10;1.00;;;;;;10327691;28;20229;-79
2022/11/19 14:57:27;;;;;;;22.00;12.97;;;-1.30;1.00;;;;;;10335606;28;20230;-82
2022/11/19 15:02:50;;;;;;;23.53;13.17;;;-1.40;1.00;;;;;;10338876;28;20384;-86
2022/11/19 15:08:17;;;;;;;17.57;10.10;;;-1.40;1.00;;;;;;10300190;28;20229;-82
2022/11/19 15:13:46;;;;;;;21.67;11.30;;;-1.40;1.00;;;;;;10289706;28;20190;-79
2022/11/19 15:19:34;;;;;;;19.27;10.90;;;-1.40;1.00;;;;;;10324663;28;20229;-81
2022/11/19 15:25:20;;;;;;;23.17;11.93;;;-1.50;1.00;;;;;;10333069;28;20392;-79
2022/11/19 15:31:10;;;;;;;39.40;19.07;;;-1.50;1.00;;;;;;10356655;28;20430;-86
2022/11/19 15:36:45;;;;;;;23.43;15.13;;;-1.60;1.00;;;;;;10350223;28;20218;-83
2022/11/19 15:42:12;;;;;;;24.73;15.07;;;-1.70;1.00;;;;;;10348094;28;20278;-81
2022/11/19 15:47:51;;;;;;;27.80;14.60;;;-1.60;1.00;;;;;;10324884;28;20240;-83
2022/11/19 15:53:19;;;;;;;23.50;14.33;;;-1.60;1.00;;;;;;10338482;28;20214;-82
2022/11/19 15:58:45;;;;;;;25.50;14.87;;;-1.60;1.00;;;;;;10323597;28;20552;-79
2022/11/19 16:04:13;;;;;;;34.30;17.10;;;-1.60;1.00;;;;;;10298865;28;20222;-80
2022/11/19 16:09:34;;;;;;;29.43;16.17;;;-1.60;1.00;;;;;;10298285;28;20267;-78
2022/11/19 16:20:35;;;;;;;33.70;18.80;;;-1.80;1.00;;;;;;10327709;28;20238;-79
2022/11/19 16:26:01;;;;;;;42.43;23.27;;;-1.70;1.00;;;;;;10350813;28;20210;-85
2022/11/19 16:31:29;;;;;;;41.70;22.80;;;-1.80;1.00;;;;;;10387022;28;20196;-85
2022/11/19 16:36:51;;;;;;;36.57;21.50;;;-1.80;1.00;;;;;;10295804;28;20230;-80
2022/11/19 16:42:16;;;;;;;46.23;25.27;;;-1.80;1.00;;;;;;10308079;28;20221;-79
2022/11/19 16:47:39;;;;;;;44.47;23.80;;;-1.80;1.00;;;;;;10291628;28;20203;-85
2022/11/19 16:53:02;;;;;;;58.90;29.70;;;-1.80;1.00;;;;;;10294153;28;20331;-79
2022/11/19 16:58:25;;;;;;;65.33;30.50;;;-1.70;1.00;;;;;;10311556;28;20259;-86
2022/11/19 17:03:46;;;;;;;47.20;24.83;;;-1.70;1.00;;;;;;10291688;28;20411;-85
2022/11/19 17:09:33;;;;;;;55.97;28.90;;;-1.70;1.00;;;;;;10307583;28;20198;-80
2022/11/19 17:15:00;;;;;;;61.47;30.77;;;-1.80;1.00;;;;;;10306043;28;20206;-86
2022/11/19 17:20:29;;;;;;;57.37;30.37;;;-1.70;1.00;;;;;;10337129;28;20236;-86
2022/11/19 17:25:53;;;;;;;50.63;24.53;;;-1.70;1.00;;;;;;10345761;28;20200;-81
2022/11/19 17:31:19;;;;;;;48.07;24.67;;;-1.70;1.00;;;;;;10369307;28;20199;-87
2022/11/19 17:36:41;;;;;;;55.83;29.27;;;-1.70;1.00;;;;;;10306658;28;20294;-79
2022/11/19 17:47:42;;;;;;;61.47;31.67;;;-1.70;1.00;;;;;;10308677;28;20198;-78
2022/11/19 17:53:03;;;;;;;46.27;24.50;;;-1.70;1.00;;;;;;10305849;28;20209;-85
2022/11/19 17:58:24;;;;;;;44.50;24.73;;;-1.70;1.00;;;;;;10314768;28;20304;-86
2022/11/19 18:03:47;;;;;;;44.67;25.60;;;-1.70;1.00;;;;;;10346370;28;20225;-79
2022/11/19 18:09:08;;;;;;;48.27;24.43;;;-1.70;1.00;;;;;;10355608;28;20275;-77
2022/11/19 18:14:30;;;;;;;40.60;23.67;;;-1.70;1.00;;;;;;10349280;28;20207;-78
2022/11/19 18:19:51;;;;;;;42.63;22.73;;;-1.70;1.00;;;;;;10288475;28;20237;-78
2022/11/19 18:25:16;;;;;;;46.00;24.37;;;-1.70;1.00;;;;;;10288693;28;20271;-79
2022/11/19 18:30:37;;;;;;;44.33;23.37;;;-1.70;1.00;;;;;;10348320;28;20393;-81
2022/11/19 18:35:58;;;;;;;49.23;26.43;;;-1.70;1.00;;;;;;10349142;28;20585;-79
2022/11/19 18:41:19;;;;;;;54.47;25.10;;;-1.90;1.00;;;;;;10343277;28;20214;-78
2022/11/19 18:46:41;;;;;;;49.93;23.77;;;-1.80;1.00;;;;;;10326949;28;20232;-79
2022/11/19 18:52:03;;;;;;;43.87;23.83;;;-1.80;1.00;;;;;;10327248;28;20240;-79
2022/11/19 18:57:24;;;;;;;34.83;21.33;;;-1.80;1.00;;;;;;10328633;28;20245;-78
2022/11/19 19:02:45;;;;;;;34.97;20.53;;;-1.90;1.00;;;;;;10346623;28;20198;-78
2022/11/19 19:08:07;;;;;;;43.73;22.73;;;-1.80;1.00;;;;;;10314062;28;20217;-78
2022/11/19 19:13:29;;;;;;;42.27;22.97;;;-1.90;1.00;;;;;;10329467;28;20195;-85
2022/11/19 19:18:50;;;;;;;40.33;22.33;;;-1.90;1.00;;;;;;10339410;28;20280;-84
2022/11/19 19:24:13;;;;;;;47.13;24.23;;;-1.80;1.00;;;;;;10325699;28;20198;-86
2022/11/19 19:29:34;;;;;;;48.97;25.87;;;-1.80;1.00;;;;;;10301444;28;20221;-79
2022/11/19 19:34:56;;;;;;;49.53;26.70;;;-1.70;1.00;;;;;;10313578;28;20411;-79
2022/11/19 19:40:17;;;;;;;41.53;23.03;;;-1.70;1.00;;;;;;10312437;28;20235;-82
2022/11/19 19:45:38;;;;;;;47.37;25.33;;;-1.70;1.00;;;;;;10325384;28;20206;-79
2022/11/19 19:51:00;;;;;;;52.43;27.63;;;-1.70;1.00;;;;;;10346835;28;20474;-81
2022/11/19 19:56:29;;;;;;;49.63;26.90;;;-1.70;1.00;;;;;;10364006;28;20186;-82
2022/11/19 20:01:50;;;;;;;51.97;27.00;;;-1.60;1.00;;;;;;10337362;28;20505;-87
2022/11/19 20:07:11;;;;;;;54.13;28.13;;;-1.60;1.00;;;;;;10322839;28;20437;-77
2022/11/19 20:18:14;;;;;;;46.47;26.77;;;-1.50;1.00;;;;;;10322202;28;20271;-86
2022/11/19 20:23:37;;;;;;;46.70;25.60;;;-1.60;1.00;;;;;;10294855;28;20212;-83
2022/11/19 20:29:01;;;;;;;52.03;27.53;;;-1.60;1.00;;;;;;10321135;28;20217;-78
2022/11/19 20:34:22;;;;;;;50.23;27.33;;;-1.50;1.00;;;;;;10353392;28;20175;-78
2022/11/19 20:39:43;;;;;;;47.43;25.00;;;-1.50;1.00;;;;;;10324228;28;20525;-82
2022/11/19 20:45:07;;;;;;;50.73;27.23;;;-1.50;1.00;;;;;;10307202;28;20208;-78
2022/11/19 20:50:27;;;;;;;47.03;25.77;;;-1.50;1.00;;;;;;10306740;28;20199;-80
2022/11/19 20:55:52;;;;;;;46.40;25.33;;;-1.50;1.00;;;;;;10320399;28;20203;-77
2022/11/19 21:01:24;;;;;;;45.57;25.67;;;-1.50;1.00;;;;;;10323572;28;20412;-87
2022/11/19 21:06:48;;;;;;;43.30;25.80;;;-1.40;1.00;;;;;;10306741;28;20237;-79
2022/11/19 21:12:09;;;;;;;51.63;27.50;;;-1.40;1.00;;;;;;10309010;28;20200;-84
2022/11/19 21:17:30;;;;;;;46.80;26.50;;;-1.40;1.00;;;;;;10305652;28;20238;-78
2022/11/19 21:22:53;;;;;;;45.40;26.47;;;-1.30;1.00;;;;;;10292520;28;20196;-81
2022/11/19 21:28:14;;;;;;;45.90;27.27;;;-1.20;1.00;;;;;;10334258;28;20207;-83
2022/11/19 21:33:35;;;;;;;52.00;27.87;;;-1.30;1.00;;;;;;10345388;28;20235;-78
2022/11/19 21:38:56;;;;;;;54.67;30.63;;;-1.20;1.00;;;;;;10331685;28;20520;-78
2022/11/19 21:44:18;;;;;;;61.63;31.63;;;-1.20;1.00;;;;;;10358751;28;20278;-79
2022/11/19 21:49:41;;;;;;;54.57;31.70;;;-1.20;1.00;;;;;;10345277;28;20277;-80
2022/11/19 21:55:02;;;;;;;54.63;33.27;;;-1.10;1.00;;;;;;10344930;28;20210;-79
2022/11/19 22:00:24;;;;;;;75.47;42.30;;;-1.10;1.00;;;;;;10316110;28;20333;-79
2022/11/19 22:05:45;;;;;;;60.47;33.00;;;-1.00;1.00;;;;;;10280517;28;20283;-84
2022/11/19 22:16:48;;;;;;;51.50;30.40;;;-0.90;1.00;;;;;;10282838;28;20242;-79
2022/11/19 22:22:09;;;;;;;57.23;30.27;;;-1.00;1.00;;;;;;10342152;28;20187;-78
2022/11/19 22:27:30;;;;;;;47.37;26.73;;;-1.10;1.00;;;;;;10330344;28;20192;-78
2022/11/19 22:32:52;;;;;;;45.67;27.37;;;-1.00;1.00;;;;;;10333281;28;20234;-86
2022/11/19 22:38:14;;;;;;;42.30;27.30;;;-1.00;1.00;;;;;;10316776;28;20552;-78
2022/11/19 22:43:36;;;;;;;40.00;25.43;;;-1.00;1.00;;;;;;10302925;28;20204;-78
2022/11/19 22:48:57;;;;;;;43.37;25.83;;;-1.00;1.00;;;;;;10303359;28;20505;-78
2022/11/19 22:54:18;;;;;;;38.93;23.87;;;-1.00;1.00;;;;;;10318733;28;20254;-80
2022/11/19 22:59:39;;;;;;;35.87;21.93;;;-0.90;1.00;;;;;;10359970;28;20231;-79
2022/11/19 23:05:01;;;;;;;42.37;26.47;;;-0.90;1.00;;;;;;10321661;28;20184;-78
2022/11/19 23:10:22;;;;;;;40.60;24.53;;;-0.90;1.00;;;;;;10278077;28;20386;-78
2022/11/19 23:15:43;;;;;;;38.47;23.90;;;-0.80;1.00;;;;;;10288603;28;20196;-79
2022/11/19 23:21:10;;;;;;;70.07;36.83;;;-0.80;1.00;;;;;;10338577;28;20414;-86
2022/11/19 23:26:32;;;;;;;69.07;33.50;;;-0.90;1.00;;;;;;10325326;28;20398;-85
2022/11/19 23:31:53;;;;;;;44.73;23.87;;;-1.00;1.00;;;;;;10327751;28;20202;-78
2022/11/19 23:37:15;;;;;;;53.83;25.97;;;-1.00;1.00;;;;;;10311551;28;20294;-81
2022/11/19 23:42:36;;;;;;;63.30;29.17;;;-1.00;1.00;;;;;;10324544;28;20247;-86
2022/11/19 23:47:57;;;;;;;62.40;28.90;;;-1.00;1.00;;;;;;10338176;28;20209;-78
2022/11/19 23:53:18;;;;;;;52.27;28.33;;;-1.00;1.00;;;;;;10341273;28;20191;-87
2022/11/19 23:58:40;;;;;;;61.40;31.37;;;-1.00;1.00;;;;;;10309582;28;20439;-78
